Time;durP1;ratioP1;P1;durP2;ratioP2;P2;SDS_P1;SDS_P2;PMS_P1;PMS_P2;Temp;Humidity;BMP_temperature;BMP_pressure;BME280_temperature;BME280_humidity;BME280_pressure;Samples;Min_cycle;Max_cycle;Signal;HPM_P1;HPM_P2
2022/06/08 00:00:16;;;;;;;5.90;4.40;;;;;;;12.24;84.76;101121.22;5029586;28;20199;-75
2022/06/08 00:02:44;;;;;;;7.30;5.10;;;;;;;12.19;84.70;101119.41;5029943;28;20187;-75
2022/06/08 00:05:10;;;;;;;7.03;5.10;;;;;;;12.14;84.01;101116.78;5029344;28;20222;-75
2022/06/08 00:07:35;;;;;;;7.93;5.03;;;;;;;12.05;84.46;101119.19;5029621;28;20557;-75
2022/06/08 00:10:02;;;;;;;5.73;5.13;;;;;;;11.95;84.96;101119.00;5012472;28;20226;-75
2022/06/08 00:12:27;;;;;;;6.50;5.10;;;;;;;11.97;84.94;101118.19;5029733;28;20241;-75
2022/06/08 00:14:53;;;;;;;6.10;5.00;;;;;;;11.92;85.12;101117.22;5029686;28;20613;-74
2022/06/08 00:17:19;;;;;;;6.93;5.00;;;;;;;11.84;84.84;101116.22;5010659;28;20225;-75
2022/06/08 00:19:44;;;;;;;5.93;4.77;;;;;;;11.82;84.80;101115.34;5028848;28;20317;-74
2022/06/08 00:22:11;;;;;;;6.77;5.00;;;;;;;11.72;85.50;101116.00;5029225;28;20190;-75
2022/06/08 00:24:37;;;;;;;7.83;5.07;;;;;;;11.71;86.00;101116.81;5011702;28;20209;-75
2022/06/08 00:27:03;;;;;;;7.70;4.93;;;;;;;11.66;85.18;101112.47;5011868;28;20236;-75
2022/06/08 00:29:28;;;;;;;6.50;5.37;;;;;;;11.65;85.27;101105.56;5010860;28;20230;-75
2022/06/08 00:31:55;;;;;;;8.20;5.73;;;;;;;11.61;85.18;101104.66;4995103;28;20214;-75
2022/06/08 00:34:20;;;;;;;6.53;5.70;;;;;;;11.49;85.95;101106.09;5011319;28;20196;-75
2022/06/08 00:36:46;;;;;;;7.30;5.67;;;;;;;11.44;86.07;101105.13;5011364;28;20671;-75
2022/06/08 00:39:11;;;;;;;7.13;5.77;;;;;;;11.41;86.05;101100.81;5029063;28;20210;-75
2022/06/08 00:41:46;;;;;;;6.87;5.30;;;;;;;11.40;86.46;101098.22;5011938;28;20190;-75
2022/06/08 00:44:26;;;;;;;6.63;5.20;;;;;;;11.26;86.64;101094.50;5011329;28;20186;-75
2022/06/08 00:46:52;;;;;;;7.10;5.60;;;;;;;11.32;86.42;101092.94;5029078;28;20252;-75
2022/06/08 00:49:30;;;;;;;8.83;6.53;;;;;;;11.31;86.56;101091.22;5029346;28;20198;-75
2022/06/08 00:51:59;;;;;;;9.23;5.63;;;;;;;11.30;86.16;101088.63;5028756;28;20194;-75
2022/06/08 00:54:35;;;;;;;7.67;6.20;;;;;;;11.19;86.37;101090.06;5029237;28;20185;-75
2022/06/08 00:57:13;;;;;;;6.43;5.73;;;;;;;11.15;86.30;101083.19;5010531;28;20661;-75
2022/06/08 00:59:46;;;;;;;8.57;6.00;;;;;;;11.06;86.77;101081.28;5029336;28;20312;-75
2022/06/08 01:02:12;;;;;;;9.20;5.97;;;;;;;11.00;87.30;101073.47;5011081;28;20277;-75
2022/06/08 01:04:37;;;;;;;6.73;5.90;;;;;;;11.00;87.00;101082.84;5011195;28;20289;-75
2022/06/08 01:07:04;;;;;;;7.37;5.90;;;;;;;10.95;87.36;101079.31;5010779;28;20252;-75
2022/06/08 01:09:37;;;;;;;9.20;6.07;;;;;;;10.86;87.28;101077.44;5013565;28;20201;-75
2022/06/08 01:12:10;;;;;;;7.13;5.57;;;;;;;10.85;87.86;101083.41;5013260;28;20730;-75
2022/06/08 01:14:38;;;;;;;7.50;6.63;;;;;;;10.85;88.99;101085.06;4995706;28;20868;-75
2022/06/08 01:17:08;;;;;;;8.37;6.23;;;;;;;10.86;88.99;101084.25;5022768;28;20193;-74
2022/06/08 01:19:36;;;;;;;8.10;5.83;;;;;;;10.82;88.89;101078.19;5014640;28;20213;-74
2022/06/08 01:22:04;;;;;;;9.77;6.70;;;;;;;10.85;89.13;101085.94;5015039;28;20186;-75
2022/06/08 01:24:40;;;;;;;7.43;6.70;;;;;;;10.87;89.46;101083.44;5014737;28;20198;-75
2022/06/08 01:27:12;;;;;;;10.00;7.30;;;;;;;10.86;89.65;101076.56;5014775;28;20222;-74
2022/06/08 01:29:52;;;;;;;10.40;8.23;;;;;;;10.93;90.04;101086.13;5014503;28;20579;-75
2022/06/08 01:32:33;;;;;;;11.47;9.03;;;;;;;10.90;90.22;101086.91;5032612;28;20683;-75
2022/06/08 01:35:24;;;;;;;11.53;8.97;;;;;;;10.93;90.37;101081.00;4997946;28;20687;-75
2022/06/08 01:38:08;;;;;;;10.30;8.20;;;;;;;10.93;91.25;101081.84;4998595;28;20236;-75
2022/06/08 01:41:10;;;;;;;10.53;8.07;;;;;;;10.83;91.02;101085.03;5013703;28;20179;-75
2022/06/08 01:44:03;;;;;;;8.87;7.93;;;;;;;10.73;90.65;101074.59;5032669;28;20197;-75
2022/06/08 01:46:33;;;;;;;8.60;7.70;;;;;;;10.71;90.22;101074.53;5013940;28;20182;-75
2022/06/08 01:49:59;;;;;;;9.37;7.93;;;;;;;10.67;90.36;101070.19;5014496;28;20297;-75
2022/06/08 01:52:24;;;;;;;9.87;7.67;;;;;;;10.56;89.42;101074.16;4935005;29;20185;-75
2022/06/08 01:55:09;;;;;;;10.03;7.60;;;;;;;10.57;89.03;101070.81;4926195;29;20777;-75
2022/06/08 01:58:03;;;;;;;10.43;8.00;;;;;;;10.54;88.57;101059.59;4991452;28;20194;-75
2022/06/08 02:00:35;;;;;;;8.07;7.03;;;;;;;10.50;88.85;101058.69;5014499;28;20190;-75
2022/06/08 02:03:20;;;;;;;10.57;7.20;;;;;;;10.40;88.76;101061.84;5014112;28;20216;-75
2022/06/08 02:06:12;;;;;;;11.53;8.10;;;;;;;10.47;90.10;101056.03;4994630;28;20218;-75
2022/06/08 02:09:00;;;;;;;9.13;7.80;;;;;;;10.45;90.31;101054.28;5000261;28;20206;-75
2022/06/08 02:11:47;;;;;;;10.03;7.80;;;;;;;10.43;89.70;101051.69;5014173;28;20190;-75
2022/06/08 02:14:33;;;;;;;11.03;7.80;;;;;;;10.32;89.68;101048.00;5013673;28;20652;-75
2022/06/08 02:17:32;;;;;;;8.97;7.77;;;;;;;10.29;90.43;101041.97;5014065;28;20188;-75
2022/06/08 02:20:11;;;;;;;10.47;7.87;;;;;;;10.40;90.86;101049.06;4981617;28;20223;-75
2022/06/08 02:22:42;;;;;;;10.90;8.10;;;;;;;10.32;91.32;101045.44;4997898;28;20190;-75
2022/06/08 02:25:42;;;;;;;10.00;7.87;;;;;;;10.31;90.27;101050.53;5013694;28;20214;-74
2022/06/08 02:28:15;;;;;;;9.13;7.50;;;;;;;10.15;91.25;101045.88;5012196;28;20206;-75
2022/06/08 02:30:53;;;;;;;11.73;8.27;;;;;;;10.16;91.42;101045.06;5013020;28;20217;-75
2022/06/08 02:36:20;;;;;;;10.20;8.13;;;;;;;10.12;90.32;101048.34;5012885;28;20198;-75
2022/06/08 02:38:53;;;;;;;12.00;9.10;;;;;;;10.14;90.38;101045.00;4997341;28;20297;-76
2022/06/08 02:41:21;;;;;;;12.30;10.03;;;;;;;10.07;91.23;101043.16;5013977;28;20178;-75
2022/06/08 02:43:51;;;;;;;11.97;8.90;;;;;;;10.08;91.49;101041.44;5013777;28;20734;-75
2022/06/08 02:46:49;;;;;;;12.87;8.73;;;;;;;10.04;90.43;101042.19;5013433;28;20182;-75
2022/06/08 02:49:17;;;;;;;10.37;8.70;;;;;;;9.99;90.17;101039.50;4997306;28;20257;-75
2022/06/08 02:51:49;;;;;;;9.10;8.20;;;;;;;9.99;89.87;101044.59;5013899;28;20210;-75
2022/06/08 02:54:19;;;;;;;9.47;8.20;;;;;;;9.96;90.09;101041.13;5013511;28;20177;-75
2022/06/08 02:57:09;;;;;;;10.97;8.43;;;;;;;9.96;91.02;101039.41;5013288;28;20194;-75
2022/06/08 02:59:49;;;;;;;10.23;8.77;;;;;;;9.95;90.38;101041.94;4996246;28;20214;-75
2022/06/08 03:02:17;;;;;;;9.73;8.60;;;;;;;9.91;91.03;101040.16;5013690;28;20206;-75
2022/06/08 03:04:57;;;;;;;10.90;8.67;;;;;;;9.94;90.69;101045.31;4996769;28;20214;-75
2022/06/08 03:07:32;;;;;;;10.83;9.03;;;;;;;9.94;90.41;101041.06;5012764;28;20191;-75
2022/06/08 03:10:02;;;;;;;10.17;8.50;;;;;;;9.94;90.29;101038.53;5012337;28;20289;-74
2022/06/08 03:12:45;;;;;;;9.90;8.57;;;;;;;9.93;90.56;101048.72;5013151;28;20189;-74
2022/06/08 03:15:15;;;;;;;10.47;8.93;;;;;;;9.90;90.36;101038.41;5011336;28;20174;-74
2022/06/08 03:17:43;;;;;;;10.13;9.13;;;;;;;9.88;91.11;101043.50;5012981;28;20187;-74
2022/06/08 03:20:10;;;;;;;10.53;9.03;;;;;;;9.95;91.23;101045.34;5013217;28;20221;-74
2022/06/08 03:22:38;;;;;;;10.80;9.70;;;;;;;9.99;91.05;101038.63;5012727;28;20198;-76
2022/06/08 03:25:05;;;;;;;11.10;9.37;;;;;;;10.03;91.52;101048.09;5013075;28;20617;-73
2022/06/08 03:27:31;;;;;;;13.13;9.27;;;;;;;9.98;91.65;101042.88;5012397;28;20356;-74
2022/06/08 03:29:57;;;;;;;9.93;8.93;;;;;;;10.01;90.99;101040.41;5012955;28;20210;-74
2022/06/08 03:32:22;;;;;;;12.87;9.50;;;;;;;9.95;90.95;101039.41;4991699;28;20387;-76
2022/06/08 03:34:48;;;;;;;11.73;9.30;;;;;;;9.98;91.33;101040.31;4993173;28;20241;-74
2022/06/08 03:37:17;;;;;;;10.07;9.07;;;;;;;10.00;91.38;101038.66;4992156;28;20803;-74
2022/06/08 03:39:47;;;;;;;11.73;8.87;;;;;;;10.16;91.71;101045.06;5008728;28;20309;-76
2022/06/08 03:42:14;;;;;;;15.40;12.33;;;;;;;10.26;93.18;101040.19;5012017;28;20559;-76
2022/06/08 03:44:40;;;;;;;14.60;11.87;;;;;;;10.30;93.19;101034.31;5011761;28;20301;-76
2022/06/08 03:47:14;;;;;;;12.57;10.90;;;;;;;10.37;93.22;101041.31;5012323;28;20186;-76
2022/06/08 03:49:39;;;;;;;13.80;10.90;;;;;;;10.45;93.30;101047.47;5011956;28;20198;-76
2022/06/08 03:52:15;;;;;;;13.17;11.37;;;;;;;10.45;93.49;101038.91;5030320;28;20182;-76
2022/06/08 03:54:47;;;;;;;13.50;11.00;;;;;;;10.51;93.28;101042.47;5011950;28;20174;-74
2022/06/08 03:57:14;;;;;;;13.60;10.80;;;;;;;10.55;93.41;101041.72;5029650;28;20193;-76
2022/06/08 03:59:42;;;;;;;14.57;10.37;;;;;;;10.62;93.32;101041.03;4995250;28;20198;-76
2022/06/08 04:02:10;;;;;;;11.83;10.57;;;;;;;10.68;93.39;101038.59;4996079;28;20275;-76
2022/06/08 04:04:37;;;;;;;12.83;10.63;;;;;;;10.76;93.30;101042.22;5011952;28;20640;-76
2022/06/08 04:07:05;;;;;;;14.43;11.37;;;;;;;10.81;93.12;101048.28;5011264;28;20609;-76
2022/06/08 04:09:30;;;;;;;13.57;11.60;;;;;;;10.90;93.39;101050.19;5011902;28;20735;-76
2022/06/08 04:11:56;;;;;;;13.27;11.43;;;;;;;10.93;93.31;101047.69;4995150;28;20213;-76
2022/06/08 04:14:22;;;;;;;14.93;11.27;;;;;;;11.00;93.19;101040.16;5011832;28;20368;-76
2022/06/08 04:16:48;;;;;;;14.87;11.60;;;;;;;11.05;93.48;101048.81;5011216;28;20194;-76
2022/06/08 04:19:19;;;;;;;14.83;11.53;;;;;;;11.15;93.46;101043.03;5011665;28;20206;-76
2022/06/08 04:21:45;;;;;;;12.93;11.50;;;;;;;11.16;93.36;101047.31;5029371;28;20183;-76
2022/06/08 04:24:14;;;;;;;13.73;11.17;;;;;;;11.32;93.46;101048.47;5011299;28;20217;-76
2022/06/08 04:26:44;;;;;;;13.93;11.63;;;;;;;11.40;92.61;101050.38;5011417;28;20209;-76
2022/06/08 04:29:16;;;;;;;14.27;11.33;;;;;;;11.46;92.77;101040.22;5010999;28;20664;-76
2022/06/08 04:31:43;;;;;;;14.80;11.20;;;;;;;11.50;92.74;101033.44;5011344;28;20611;-76
2022/06/08 04:34:16;;;;;;;15.30;10.90;;;;;;;11.64;92.76;101029.47;5015658;28;20186;-76
2022/06/08 04:36:43;;;;;;;12.33;11.03;;;;;;;11.74;92.41;101033.91;5030999;28;20218;-76
2022/06/08 04:39:11;;;;;;;12.80;11.43;;;;;;;11.84;92.14;101035.84;5030633;28;20206;-76
2022/06/08 04:41:40;;;;;;;13.47;10.87;;;;;;;11.85;91.64;101037.56;5031195;28;20242;-76
2022/06/08 04:44:06;;;;;;;13.30;11.00;;;;;;;11.86;91.72;101040.16;5030330;28;20659;-75
2022/06/08 04:46:33;;;;;;;12.93;11.20;;;;;;;11.93;91.63;101044.53;5026010;28;20643;-75
2022/06/08 04:49:01;;;;;;;13.77;11.17;;;;;;;12.06;91.21;101046.47;5030569;28;20202;-75
2022/06/08 04:51:28;;;;;;;13.13;10.87;;;;;;;12.09;90.99;101043.97;5030661;28;20185;-75
2022/06/08 04:53:55;;;;;;;14.73;12.00;;;;;;;12.20;90.53;101038.97;5031139;28;20240;-76
2022/06/08 04:56:21;;;;;;;13.50;11.23;;;;;;;12.21;90.70;101049.28;5030333;28;20177;-76
2022/06/08 04:58:54;;;;;;;12.43;11.13;;;;;;;12.24;90.75;101046.78;5031279;28;20224;-76
2022/06/08 05:01:22;;;;;;;13.07;11.63;;;;;;;12.37;90.41;101041.00;5030737;28;20250;-75
2022/06/08 05:03:48;;;;;;;11.87;10.60;;;;;;;12.48;90.01;101042.00;5031034;28;20184;-76
2022/06/08 05:06:14;;;;;;;11.73;10.20;;;;;;;12.49;89.43;101048.00;5030886;28;20232;-76
2022/06/08 05:08:40;;;;;;;12.77;10.37;;;;;;;12.58;89.93;101045.59;5030495;28;20217;-76
2022/06/08 05:11:08;;;;;;;13.03;10.70;;;;;;;12.76;89.01;101038.97;5030949;28;20197;-76
2022/06/08 05:13:36;;;;;;;11.47;10.30;;;;;;;12.87;88.76;101051.97;5030404;28;20196;-75
2022/06/08 05:16:07;;;;;;;13.80;11.13;;;;;;;12.96;88.89;101049.53;5030540;28;20682;-76
2022/06/08 05:18:36;;;;;;;13.23;10.33;;;;;;;13.04;87.98;101052.22;5030145;28;20251;-77
2022/06/08 05:21:04;;;;;;;11.43;10.20;;;;;;;13.06;87.53;101048.84;5030985;28;20178;-76
2022/06/08 05:23:34;;;;;;;12.57;10.27;;;;;;;13.09;88.37;101048.00;5030395;28;20202;-75
2022/06/08 05:26:04;;;;;;;13.47;10.53;;;;;;;13.10;88.64;101057.44;5014706;28;20267;-75
2022/06/08 05:28:30;;;;;;;13.23;11.73;;;;;;;13.06;89.42;101053.09;5030447;28;20202;-76
2022/06/08 05:30:59;;;;;;;12.20;10.90;;;;;;;13.05;89.86;101054.81;5030415;28;20190;-75
2022/06/08 05:33:28;;;;;;;14.07;12.53;;;;;;;12.99;90.13;101056.44;5027380;28;20244;-76
2022/06/08 05:35:58;;;;;;;14.27;11.53;;;;;;;13.02;90.57;101047.06;5026428;28;20170;-76
2022/06/08 05:38:24;;;;;;;12.53;11.23;;;;;;;13.14;89.96;101048.94;5027236;28;20221;-76
2022/06/08 05:40:50;;;;;;;13.30;11.13;;;;;;;13.17;90.42;101044.66;5028222;28;20656;-75
2022/06/08 05:43:17;;;;;;;15.50;12.17;;;;;;;13.25;91.08;101037.06;5027592;28;20282;-75
2022/06/08 05:45:48;;;;;;;14.27;12.20;;;;;;;13.31;90.65;101048.25;5027395;28;20341;-75
2022/06/08 05:48:15;;;;;;;12.67;11.37;;;;;;;13.39;90.04;101040.66;5027705;28;20202;-75
2022/06/08 05:50:43;;;;;;;13.23;11.90;;;;;;;13.44;89.74;101036.44;5027658;28;20194;-75
2022/06/08 05:53:14;;;;;;;12.87;11.57;;;;;;;13.54;89.09;101048.53;5010992;28;20175;-75
2022/06/08 05:55:40;;;;;;;11.87;10.17;;;;;;;13.60;88.26;101043.44;5028301;28;20568;-75
2022/06/08 05:58:06;;;;;;;14.50;10.47;;;;;;;13.62;87.81;101045.19;5030513;28;20186;-75
2022/06/08 06:00:35;;;;;;;13.83;10.60;;;;;;;13.64;87.54;101038.38;5031121;28;20186;-76
2022/06/08 06:03:01;;;;;;;14.77;11.77;;;;;;;13.72;87.35;101033.28;5030756;28;20187;-75
2022/06/08 06:05:30;;;;;;;14.47;11.20;;;;;;;13.75;87.97;101033.28;5014586;28;20339;-75
2022/06/08 06:07:59;;;;;;;16.27;10.73;;;;;;;13.83;86.79;101036.81;5030504;28;20182;-75
2022/06/08 06:10:33;;;;;;;12.70;11.07;;;;;;;13.97;86.88;101028.38;5032694;28;20652;-76
2022/06/08 06:12:59;;;;;;;10.87;9.57;;;;;;;14.07;85.72;101027.59;5015611;28;20198;-76
2022/06/08 06:15:37;;;;;;;13.80;10.37;;;;;;;14.04;85.70;101027.56;5030656;28;20273;-76
2022/06/08 06:18:05;;;;;;;11.33;9.97;;;;;;;14.16;85.30;101019.06;5030634;28;20193;-75
2022/06/08 06:20:31;;;;;;;11.87;10.63;;;;;;;14.12;85.26;101025.91;5030536;28;20186;-76
2022/06/08 06:23:14;;;;;;;11.53;10.10;;;;;;;14.24;85.15;101015.75;5030789;28;20179;-75
2022/06/08 06:26:00;;;;;;;14.80;11.10;;;;;;;14.35;85.28;101019.25;5031121;28;20726;-75
2022/06/08 06:28:43;;;;;;;12.83;9.77;;;;;;;14.56;84.22;101011.69;5030649;28;20214;-75
2022/06/08 06:31:43;;;;;;;10.97;9.83;;;;;;;14.68;83.42;101014.31;5029658;28;20190;-76
2022/06/08 06:34:14;;;;;;;11.93;8.90;;;;;;;14.78;82.83;101023.81;5023825;28;20217;-76
2022/06/08 06:36:41;;;;;;;11.87;9.77;;;;;;;14.85;83.18;101015.28;5013718;28;20194;-75
2022/06/08 06:39:07;;;;;;;13.90;9.90;;;;;;;14.97;82.30;101017.03;5014163;28;20604;-76
2022/06/08 06:41:38;;;;;;;11.63;9.83;;;;;;;15.02;81.95;101021.38;5013406;28;20241;-76
2022/06/08 06:44:04;;;;;;;12.97;9.70;;;;;;;15.10;82.08;101023.97;4997724;28;20220;-75
2022/06/08 06:46:39;;;;;;;11.80;9.30;;;;;;;15.94;79.77;101019.03;5014037;28;20604;-76
2022/06/08 06:49:10;;;;;;;9.63;8.63;;;;;;;16.15;77.92;101017.31;4997866;28;20234;-76
2022/06/08 06:51:37;;;;;;;11.83;8.77;;;;;;;16.44;76.52;101019.91;5013733;28;20187;-76
2022/06/08 06:54:06;;;;;;;9.93;8.60;;;;;;;16.11;78.16;101020.75;5030980;28;20584;-76
2022/06/08 06:56:34;;;;;;;10.80;8.23;;;;;;;16.31;78.19;101025.91;4997709;28;20182;-76
2022/06/08 06:59:04;;;;;;;10.60;8.60;;;;;;;16.12;78.04;101026.78;5013327;28;20571;-76
2022/06/08 07:01:34;;;;;;;11.23;8.20;;;;;;;15.89;78.84;101033.66;5013682;28;20687;-76
2022/06/08 07:04:00;;;;;;;9.97;8.37;;;;;;;15.84;78.89;101037.97;5013039;28;20269;-75
2022/06/08 07:06:25;;;;;;;9.70;7.60;;;;;;;16.00;78.50;101048.31;5012762;28;20638;-76
2022/06/08 07:08:51;;;;;;;9.60;8.03;;;;;;;15.99;77.85;101043.13;5013229;28;20224;-76
2022/06/08 07:11:37;;;;;;;9.60;8.03;;;;;;;16.20;77.05;101036.25;4996723;28;20313;-76
2022/06/08 07:14:17;;;;;;;11.47;8.20;;;;;;;16.25;76.42;101036.25;5025652;28;20214;-75
2022/06/08 07:16:45;;;;;;;11.27;8.13;;;;;;;16.50;75.49;101038.84;5019534;28;20260;-75
2022/06/08 07:19:12;;;;;;;9.33;7.50;;;;;;;16.53;74.39;101031.06;5012889;28;20203;-76
2022/06/08 07:21:39;;;;;;;11.87;7.53;;;;;;;16.51;75.34;101040.56;5029128;28;20581;-75
2022/06/08 07:24:06;;;;;;;9.77;6.90;;;;;;;16.51;74.95;101034.53;5030919;28;20244;-75
2022/06/08 07:26:32;;;;;;;10.33;7.80;;;;;;;16.65;75.61;101040.53;5028899;28;20242;-75
2022/06/08 07:28:58;;;;;;;10.30;7.40;;;;;;;16.58;74.36;101038.84;5048640;28;20209;-76
2022/06/08 07:31:26;;;;;;;10.27;7.70;;;;;;;16.47;74.79;101041.44;5032029;28;20213;-75
2022/06/08 07:33:52;;;;;;;9.93;8.37;;;;;;;16.56;75.40;101028.50;5050157;28;20181;-76
2022/06/08 07:36:19;;;;;;;8.20;7.20;;;;;;;16.77;74.25;101022.41;5050557;28;20182;-76
2022/06/08 07:38:44;;;;;;;10.10;6.60;;;;;;;16.96;72.76;101029.25;5049797;28;20252;-76
2022/06/08 07:41:10;;;;;;;8.33;6.73;;;;;;;16.92;72.62;101025.81;5031858;28;20201;-76
2022/06/08 07:43:35;;;;;;;8.57;6.97;;;;;;;16.98;71.83;101020.59;5032115;28;20190;-77
2022/06/08 07:46:01;;;;;;;7.60;6.13;;;;;;;17.13;71.57;101017.09;5032564;28;20563;-76
2022/06/08 07:51:11;;;;;;;7.30;6.60;;;;;;;17.12;70.79;101018.81;5049879;28;20190;-76
2022/06/08 07:53:37;;;;;;;9.80;7.07;;;;;;;17.26;70.64;101018.75;5050292;28;20192;-76
2022/06/08 07:56:03;;;;;;;11.17;7.20;;;;;;;17.12;71.49;101007.59;5031906;28;20197;-75
2022/06/08 07:58:29;;;;;;;7.80;6.67;;;;;;;17.33;70.64;101008.38;5032142;28;20286;-76
2022/06/08 08:00:57;;;;;;;6.77;6.07;;;;;;;17.45;70.04;100999.72;5032020;28;20854;-76
2022/06/08 08:03:23;;;;;;;9.43;5.87;;;;;;;17.63;69.88;100995.25;5050285;28;20273;-76
2022/06/08 08:05:49;;;;;;;9.47;7.03;;;;;;;17.51;69.71;100994.50;5032094;28;20214;-76
2022/06/08 08:08:17;;;;;;;9.47;6.30;;;;;;;17.65;69.27;100992.66;5031593;28;20205;-76
2022/06/08 08:10:43;;;;;;;10.00;7.03;;;;;;;17.49;69.95;100991.03;5049937;28;20190;-76
2022/06/08 08:13:09;;;;;;;8.47;6.70;;;;;;;17.75;69.98;100978.78;5031588;28;20205;-76
2022/06/08 08:15:35;;;;;;;7.27;6.57;;;;;;;17.75;69.72;100984.81;5049899;28;20607;-76
2022/06/08 08:18:00;;;;;;;7.20;6.50;;;;;;;18.13;68.85;100968.94;5048751;28;20186;-76
2022/06/08 08:20:28;;;;;;;9.53;7.00;;;;;;;18.33;68.38;100967.91;5049655;28;20223;-76
2022/06/08 08:22:55;;;;;;;9.00;7.43;;;;;;;18.55;66.64;100959.03;5049324;28;20265;-76
2022/06/08 08:25:22;;;;;;;8.23;7.43;;;;;;;18.82;65.74;100963.91;5049756;28;20213;-76
2022/06/08 08:27:49;;;;;;;9.10;7.70;;;;;;;18.88;65.99;100953.44;5049618;28;20181;-76
2022/06/08 08:30:17;;;;;;;9.33;7.53;;;;;;;19.69;65.77;100948.84;5049254;28;20205;-77
2022/06/08 08:32:43;;;;;;;10.67;7.63;;;;;;;19.97;63.83;100945.75;5031537;28;20190;-76
2022/06/08 08:35:10;;;;;;;10.40;8.27;;;;;;;20.17;62.68;100940.25;5013500;28;20186;-76
2022/06/08 08:37:37;;;;;;;11.03;8.97;;;;;;;20.55;63.25;100937.78;5011843;28;20246;-76
2022/06/08 08:40:05;;;;;;;10.70;9.07;;;;;;;20.79;61.54;100929.47;5029511;28;20198;-76
2022/06/08 08:42:32;;;;;;;11.77;9.87;;;;;;;20.58;61.85;100933.38;5012218;28;20190;-76
2022/06/08 08:45:03;;;;;;;12.23;10.67;;;;;;;20.77;60.68;100928.66;5029278;28;20207;-76
2022/06/08 08:47:34;;;;;;;12.77;9.80;;;;;;;21.22;60.47;100930.28;5029393;28;20187;-76
2022/06/08 08:50:22;;;;;;;15.47;12.63;;;;;;;20.72;61.49;100925.25;5029415;28;20210;-76
2022/06/08 08:52:53;;;;;;;13.00;11.70;;;;;;;20.39;62.96;100933.75;5029433;28;20182;-76
2022/06/08 08:55:27;;;;;;;14.53;11.13;;;;;;;20.88;61.66;100916.25;5011812;28;20636;-76
2022/06/08 08:58:08;;;;;;;17.00;14.43;;;;;;;20.53;63.68;100913.53;5028918;28;20185;-76
2022/06/08 09:00:41;;;;;;;16.07;13.10;;;;;;;20.59;62.77;100908.22;4995608;28;20556;-76
2022/06/08 09:03:22;;;;;;;14.70;12.00;;;;;;;20.89;62.37;100903.22;5011304;28;20187;-76
2022/06/08 09:05:51;;;;;;;14.77;13.20;;;;;;;20.76;62.46;100895.69;5011509;28;20248;-76
2022/06/08 09:08:19;;;;;;;15.40;13.63;;;;;;;20.87;61.92;100896.34;5011079;28;20230;-76
2022/06/08 09:10:45;;;;;;;12.50;11.17;;;;;;;21.65;60.75;100873.66;5029397;28;20528;-76
2022/06/08 09:13:44;;;;;;;12.40;11.23;;;;;;;22.13;58.83;100873.25;5011432;28;20870;-76
2022/06/08 09:16:24;;;;;;;12.60;11.30;;;;;;;22.18;58.08;100874.00;5029781;28;20186;-76
2022/06/08 09:18:49;;;;;;;14.33;11.63;;;;;;;21.91;59.24;100871.25;5011274;28;20309;-76
2022/06/08 09:21:34;;;;;;;12.73;11.43;;;;;;;22.17;59.51;100866.19;5029495;28;20558;-76
2022/06/08 09:24:21;;;;;;;12.73;11.40;;;;;;;22.66;56.05;100868.31;5029183;28;20188;-76
2022/06/08 09:26:47;;;;;;;14.10;12.70;;;;;;;22.24;56.82;100868.59;5018332;28;20265;-76
2022/06/08 09:29:22;;;;;;;12.30;11.00;;;;;;;23.25;56.79;100862.13;5011627;28;20703;-76
2022/06/08 09:31:51;;;;;;;11.90;10.27;;;;;;;23.42;54.43;100859.81;5014520;28;20243;-76
2022/06/08 09:34:26;;;;;;;13.23;11.93;;;;;;;23.45;54.39;100857.09;5015289;28;20192;-76
2022/06/08 09:37:06;;;;;;;12.97;11.57;;;;;;;23.00;55.87;100850.69;5032328;28;20180;-76
2022/06/08 09:39:33;;;;;;;12.47;11.10;;;;;;;23.34;54.57;100852.22;5032881;28;20213;-76
2022/06/08 09:42:03;;;;;;;14.27;12.90;;;;;;;23.32;53.80;100858.41;5014846;28;20184;-76
2022/06/08 09:44:46;;;;;;;14.82;13.27;;;;;;;22.94;54.81;100857.00;4994309;28;20183;-76
2022/06/08 09:53:34;;;;;;;13.70;12.10;;;;;;;24.23;51.59;100836.94;5030460;28;20196;-76
2022/06/08 09:56:25;;;;;;;13.65;12.35;;;;;;;24.33;52.02;100840.06;5015008;28;20269;-77
2022/06/08 09:59:11;;;;;;;11.38;10.27;;;;;;;25.28;50.71;100829.38;5010409;28;20218;-76
2022/06/08 10:01:46;;;;;;;14.07;12.57;;;;;;;24.44;51.24;100830.88;5032090;28;20190;-76
2022/06/08 10:04:39;;;;;;;14.32;12.93;;;;;;;24.18;52.13;100835.38;5030917;28;20194;-76
2022/06/08 10:07:16;;;;;;;15.32;13.75;;;;;;;23.52;53.33;100832.47;5031161;28;20187;-76
2022/06/08 10:10:08;;;;;;;15.93;14.32;;;;;;;23.92;52.28;100838.06;5030402;28;20202;-76
2022/06/08 10:12:44;;;;;;;14.73;13.20;;;;;;;23.24;53.31;100842.13;5032224;28;20571;-76
2022/06/08 10:15:35;;;;;;;15.03;13.53;;;;;;;22.42;55.21;100839.38;5031530;28;20202;-76
2022/06/08 10:18:10;;;;;;;14.73;13.30;;;;;;;22.74;56.11;100835.00;5030180;28;20190;-76
2022/06/08 10:20:39;;;;;;;14.53;13.00;;;;;;;22.39;56.75;100831.63;5013407;28;20194;-76
2022/06/08 10:23:16;;;;;;;15.73;13.50;;;;;;;21.85;57.95;100829.69;5031952;28;20194;-76
2022/06/08 10:25:46;;;;;;;14.70;13.30;;;;;;;21.89;58.90;100831.31;5031553;28;20222;-76
2022/06/08 10:28:48;;;;;;;13.87;12.40;;;;;;;22.17;57.89;100830.53;5030900;28;20186;-76
2022/06/08 10:31:36;;;;;;;15.97;13.27;;;;;;;21.84;59.82;100831.44;5011499;28;20201;-76
2022/06/08 10:34:16;;;;;;;16.00;13.37;;;;;;;21.81;59.49;100823.72;5006686;28;20263;-76
2022/06/08 10:36:49;;;;;;;13.33;11.97;;;;;;;21.91;59.76;100821.69;4997430;28;20175;-76
2022/06/08 10:39:15;;;;;;;17.17;13.37;;;;;;;21.99;58.35;100815.38;5031695;28;20305;-77
2022/06/08 10:42:40;;;;;;;14.07;12.60;;;;;;;21.93;59.31;100825.97;5030893;28;20170;-76
2022/06/08 10:45:22;;;;;;;14.57;13.07;;;;;;;22.26;57.83;100827.63;5031579;28;20294;-76
2022/06/08 10:48:01;;;;;;;14.20;12.57;;;;;;;23.01;55.75;100821.06;5013221;28;20225;-76
2022/06/08 10:50:37;;;;;;;15.77;14.13;;;;;;;23.02;55.01;100822.78;5013694;28;20260;-76
2022/06/08 10:56:23;;;;;;;15.37;13.97;;;;;;;22.23;57.79;100820.81;5013582;28;20564;-76
2022/06/08 10:58:57;;;;;;;17.23;15.43;;;;;;;21.88;58.94;100824.41;5013309;28;20848;-76
2022/06/08 11:01:40;;;;;;;15.50;13.93;;;;;;;21.78;59.06;100818.56;5031450;28;20205;-76
2022/06/08 11:04:26;;;;;;;17.00;14.57;;;;;;;21.55;59.71;100822.63;5013987;28;20178;-76
2022/06/08 11:06:54;;;;;;;15.00;13.40;;;;;;;21.47;59.67;100824.59;5031075;28;20205;-76
2022/06/08 11:09:31;;;;;;;15.87;14.17;;;;;;;21.42;60.83;100829.91;5013559;28;20695;-76
2022/06/08 11:12:11;;;;;;;15.23;13.63;;;;;;;21.46;59.05;100822.88;5030838;28;20221;-76
2022/06/08 11:14:48;;;;;;;16.80;14.97;;;;;;;21.52;59.04;100822.72;5031288;28;20181;-76
2022/06/08 11:17:31;;;;;;;15.90;13.83;;;;;;;21.65;60.18;100822.34;5012432;28;20252;-76
2022/06/08 11:20:28;;;;;;;16.50;14.63;;;;;;;21.60;59.94;100828.59;5013129;28;20684;-76
2022/06/08 11:23:12;;;;;;;15.43;13.90;;;;;;;22.17;58.02;100816.63;5013035;28;20573;-76
2022/06/08 11:25:52;;;;;;;15.80;14.03;;;;;;;23.20;55.69;100814.38;5030873;28;20285;-76
2022/06/08 11:28:24;;;;;;;15.00;13.50;;;;;;;23.81;53.74;100814.03;5012507;28;20170;-77
2022/06/08 11:30:51;;;;;;;16.73;14.32;;;;;;;24.41;51.70;100809.22;5030805;28;20182;-77
2022/06/08 11:33:19;;;;;;;15.05;13.55;;;;;;;24.52;52.15;100807.03;5012289;28;20205;-76
2022/06/08 11:36:16;;;;;;;16.60;14.82;;;;;;;24.05;53.16;100816.66;5012997;28;20190;-76
2022/06/08 11:39:01;;;;;;;16.75;13.90;;;;;;;24.31;51.80;100805.22;5029900;28;20205;-77
2022/06/08 11:41:37;;;;;;;13.85;12.45;;;;;;;24.86;52.10;100800.44;5012920;28;20549;-77
2022/06/08 11:44:17;;;;;;;13.95;12.55;;;;;;;24.76;50.63;100799.09;5030243;28;20189;-77
2022/06/08 11:46:47;;;;;;;12.93;11.73;;;;;;;25.12;49.34;100795.03;5030444;28;20205;-77
2022/06/08 11:49:31;;;;;;;11.50;10.40;;;;;;;25.66;47.01;100791.88;5029969;28;20206;-76
2022/06/08 11:51:56;;;;;;;12.98;11.68;;;;;;;25.69;48.16;100789.97;5012139;28;20194;-77
2022/06/08 11:54:31;;;;;;;13.63;11.85;;;;;;;25.31;49.17;100789.88;5011342;28;20300;-76
2022/06/08 11:57:10;;;;;;;12.65;11.35;;;;;;;25.86;48.21;100781.38;5029039;28;20776;-76